Time;durP1;ratioP1;P1;durP2;ratioP2;P2;SDS_P1;SDS_P2;PMS_P1;PMS_P2;Temp;Humidity;BMP_temperature;BMP_pressure;BME280_temperature;BME280_humidity;BME280_pressure;Samples;Min_cycle;Max_cycle;Signal;HPM_P1;HPM_P2
2022/05/08 00:01:23;;;;;;;11.40;8.40;;;10.80;99.90;;;;;;5113434;28;20193;-82
2022/05/08 00:03:50;;;;;;;11.77;8.50;;;10.90;99.90;;;;;;5112750;28;20240;-80
2022/05/08 00:06:18;;;;;;;14.07;9.93;;;10.90;99.90;;;;;;5113158;28;20301;-82
2022/05/08 00:08:45;;;;;;;11.57;8.70;;;10.90;99.90;;;;;;5113098;28;20220;-81
2022/05/08 00:11:12;;;;;;;12.57;8.47;;;11.00;99.90;;;;;;5113128;28;20241;-81
2022/05/08 00:13:39;;;;;;;12.77;9.70;;;11.00;99.90;;;;;;5112738;28;20713;-80
2022/05/08 00:16:06;;;;;;;12.03;9.17;;;10.90;99.90;;;;;;5113021;28;20201;-82
2022/05/08 00:18:33;;;;;;;11.20;9.27;;;11.00;99.90;;;;;;5112823;28;20284;-82
2022/05/08 00:20:59;;;;;;;11.77;9.10;;;11.00;99.90;;;;;;5112495;28;20708;-82
2022/05/08 00:23:28;;;;;;;11.97;9.53;;;10.90;99.90;;;;;;5112640;28;20266;-82
2022/05/08 00:25:56;;;;;;;11.60;8.83;;;10.90;99.90;;;;;;5112761;28;20738;-81
2022/05/08 00:28:23;;;;;;;12.37;8.90;;;10.90;99.90;;;;;;5111744;28;20204;-82
2022/05/08 00:30:49;;;;;;;12.33;9.30;;;10.80;99.90;;;;;;5112472;28;20233;-82
2022/05/08 00:33:16;;;;;;;11.57;8.97;;;10.80;99.90;;;;;;5112582;28;20642;-80
2022/05/08 00:35:43;;;;;;;10.87;8.50;;;10.70;99.90;;;;;;5112750;28;20192;-81
2022/05/08 00:38:10;;;;;;;12.70;8.60;;;10.70;99.90;;;;;;5112261;28;20214;-82
2022/05/08 00:40:38;;;;;;;14.87;9.43;;;10.60;99.90;;;;;;5112660;28;20218;-82
2022/05/08 00:43:24;;;;;;;16.20;9.73;;;10.60;99.90;;;;;;5112616;28;20243;-81
2022/05/08 00:45:51;;;;;;;11.30;9.10;;;10.60;99.90;;;;;;5112888;28;20289;-82
2022/05/08 00:48:18;;;;;;;11.80;8.85;;;10.60;99.90;;;;;;5112674;28;20279;-81
2022/05/08 00:50:45;;;;;;;10.53;8.90;;;10.60;99.90;;;;;;5112416;28;20283;-82
2022/05/08 00:53:12;;;;;;;13.50;9.37;;;10.60;99.90;;;;;;5111938;28;20217;-81
2022/05/08 00:55:41;;;;;;;13.83;8.97;;;10.60;99.90;;;;;;5112506;28;20224;-81
2022/05/08 00:58:08;;;;;;;14.07;10.10;;;10.50;99.90;;;;;;5112604;28;20225;-81
2022/05/08 01:00:35;;;;;;;13.70;9.80;;;10.50;99.90;;;;;;5112374;28;20221;-82
2022/05/08 01:03:02;;;;;;;13.67;10.93;;;10.40;99.90;;;;;;5112300;28;20202;-80
2022/05/08 01:05:29;;;;;;;14.00;10.83;;;10.30;99.90;;;;;;5112388;28;20190;-81
2022/05/08 01:07:56;;;;;;;16.73;11.47;;;10.20;99.90;;;;;;5112661;28;20255;-81
2022/05/08 01:10:23;;;;;;;18.73;12.47;;;10.20;99.90;;;;;;5112065;28;20690;-82
2022/05/08 01:12:52;;;;;;;15.07;11.13;;;10.20;99.90;;;;;;5111738;28;20235;-82
2022/05/08 01:15:20;;;;;;;21.00;17.80;;;10.10;99.90;;;;;;5112059;28;20722;-82
2022/05/08 01:17:48;;;;;;;16.87;11.53;;;10.10;99.90;;;;;;5111604;28;20190;-81
2022/05/08 01:20:16;;;;;;;15.77;11.17;;;10.10;99.90;;;;;;5112342;28;20221;-81
2022/05/08 01:22:45;;;;;;;17.43;11.67;;;10.10;99.90;;;;;;5112301;28;20193;-82
2022/05/08 01:25:12;;;;;;;16.23;12.00;;;10.10;1.00;;;;;;5111995;28;20277;-81
2022/05/08 01:27:39;;;;;;;17.60;11.90;;;10.10;1.00;;;;;;5111893;28;20714;-81
2022/05/08 01:30:07;;;;;;;21.00;13.90;;;10.20;1.00;;;;;;5112276;28;20277;-82
2022/05/08 01:32:34;;;;;;;16.57;12.73;;;10.20;1.00;;;;;;5112199;28;20189;-82
2022/05/08 01:35:01;;;;;;;21.80;13.40;;;10.30;1.00;;;;;;5111857;28;20196;-81
2022/05/08 01:37:28;;;;;;;16.73;12.43;;;10.40;1.00;;;;;;5111929;28;20199;-81
2022/05/08 01:39:57;;;;;;;17.70;12.30;;;10.50;1.00;;;;;;5112970;28;20312;-80
2022/05/08 01:42:27;;;;;;;19.07;12.73;;;10.50;1.00;;;;;;5115497;28;20211;-81
2022/05/08 01:44:54;;;;;;;18.40;13.40;;;10.50;1.00;;;;;;5116115;28;20193;-81
2022/05/08 01:50:07;;;;;;;16.43;12.40;;;10.70;99.90;;;;;;5115501;28;20189;-81
2022/05/08 01:52:33;;;;;;;17.73;11.83;;;10.80;99.90;;;;;;5114544;28;20286;-81
2022/05/08 01:55:02;;;;;;;16.23;11.90;;;10.80;99.90;;;;;;5115278;28;20658;-82
2022/05/08 01:57:29;;;;;;;19.13;13.53;;;10.90;99.90;;;;;;5115554;28;20194;-80
2022/05/08 01:59:56;;;;;;;19.13;13.50;;;10.90;99.90;;;;;;5115352;28;20579;-81
2022/05/08 02:02:23;;;;;;;16.93;12.83;;;11.00;99.90;;;;;;5115168;28;20721;-81
2022/05/08 02:04:50;;;;;;;17.03;12.43;;;11.10;99.90;;;;;;5115184;28;20726;-81
2022/05/08 02:07:17;;;;;;;15.77;11.83;;;11.10;99.90;;;;;;5115337;28;20208;-81
2022/05/08 02:09:45;;;;;;;18.30;13.00;;;11.20;99.90;;;;;;5114706;28;20197;-82
2022/05/08 02:12:14;;;;;;;15.80;12.13;;;11.20;99.90;;;;;;5115223;28;20195;-80
2022/05/08 02:14:43;;;;;;;16.50;11.47;;;11.30;99.90;;;;;;5115186;28;20293;-80
2022/05/08 02:17:10;;;;;;;18.07;11.77;;;11.30;99.90;;;;;;5114780;28;20648;-81
2022/05/08 02:19:37;;;;;;;17.40;12.70;;;11.40;99.90;;;;;;5115016;28;20219;-83
2022/05/08 02:22:04;;;;;;;16.40;12.30;;;11.40;99.90;;;;;;5115000;28;20233;-82
2022/05/08 02:24:31;;;;;;;15.40;11.80;;;11.50;99.90;;;;;;5115075;28;20218;-82
2022/05/08 02:26:58;;;;;;;17.33;12.33;;;11.60;99.90;;;;;;5114973;28;20278;-81
2022/05/08 02:29:26;;;;;;;18.20;11.70;;;11.60;99.90;;;;;;5114791;28;20642;-81
2022/05/08 02:31:53;;;;;;;15.40;11.77;;;11.60;99.90;;;;;;5115054;28;20277;-81
2022/05/08 02:34:20;;;;;;;16.27;11.67;;;11.70;99.90;;;;;;5114894;28;20223;-82
2022/05/08 02:36:47;;;;;;;17.43;13.03;;;11.70;99.90;;;;;;5114420;28;20234;-81
2022/05/08 02:39:14;;;;;;;15.70;12.17;;;11.70;99.90;;;;;;5114705;28;20247;-81
2022/05/08 02:41:41;;;;;;;16.17;12.10;;;11.80;99.90;;;;;;5114165;28;20239;-82
2022/05/08 02:44:08;;;;;;;15.30;12.03;;;11.90;99.90;;;;;;5114354;28;20279;-81
2022/05/08 02:46:36;;;;;;;15.17;11.80;;;11.90;99.90;;;;;;5114624;28;20283;-82
2022/05/08 02:49:03;;;;;;;17.00;12.20;;;11.90;90.60;;;;;;5114327;28;20718;-82
2022/05/08 02:51:30;;;;;;;16.80;12.30;;;12.00;76.90;;;;;;5113585;28;20256;-81
2022/05/08 02:53:57;;;;;;;18.00;13.07;;;12.00;91.60;;;;;;5114355;28;20653;-81
2022/05/08 02:59:10;;;;;;;18.60;12.87;;;12.10;48.50;;;;;;5114172;28;20172;-82
2022/05/08 03:01:38;;;;;;;18.53;12.27;;;12.20;1.00;;;;;;5114221;28;20217;-81
2022/05/08 03:04:05;;;;;;;20.77;13.23;;;12.10;1.00;;;;;;5114306;28;20278;-82
2022/05/08 03:06:32;;;;;;;18.07;13.27;;;12.20;1.00;;;;;;5114233;28;20227;-81
2022/05/08 03:08:59;;;;;;;20.40;13.13;;;12.20;35.90;;;;;;5114177;28;20667;-82
2022/05/08 03:11:26;;;;;;;18.03;13.40;;;12.30;99.90;;;;;;5113959;28;20196;-81
2022/05/08 03:13:54;;;;;;;17.57;12.70;;;12.20;99.70;;;;;;5114212;28;20223;-81
2022/05/08 03:16:22;;;;;;;19.80;13.97;;;12.30;99.90;;;;;;5114022;28;20200;-82
2022/05/08 03:18:51;;;;;;;20.67;14.63;;;12.30;99.90;;;;;;5113928;28;20219;-82
2022/05/08 03:21:19;;;;;;;21.27;14.07;;;12.30;99.90;;;;;;5113890;28;20226;-81
2022/05/08 03:23:47;;;;;;;20.97;14.30;;;12.40;99.90;;;;;;5113867;28;20260;-81
2022/05/08 03:26:15;;;;;;;20.60;14.73;;;12.40;99.90;;;;;;5113792;28;20200;-81
2022/05/08 03:28:43;;;;;;;23.90;13.97;;;12.40;99.90;;;;;;5113852;28;20199;-81
2022/05/08 03:31:10;;;;;;;18.70;13.43;;;12.40;99.90;;;;;;5113663;28;20301;-81
2022/05/08 03:33:38;;;;;;;19.33;13.60;;;12.40;99.90;;;;;;5113678;28;20555;-82
2022/05/08 03:36:10;;;;;;;20.70;14.60;;;12.40;99.90;;;;;;5113290;28;20660;-81
2022/05/08 03:38:41;;;;;;;21.90;13.70;;;12.50;99.90;;;;;;5113782;28;20184;-82
2022/05/08 03:41:09;;;;;;;19.73;13.80;;;12.50;99.90;;;;;;5113100;28;20226;-82
2022/05/08 03:43:36;;;;;;;21.63;13.27;;;12.50;99.90;;;;;;5113454;28;20187;-80
2022/05/08 03:46:03;;;;;;;20.47;13.47;;;12.50;99.90;;;;;;5113389;28;20200;-82
2022/05/08 03:48:31;;;;;;;19.83;13.40;;;12.50;99.90;;;;;;5113430;28;20221;-81
2022/05/08 03:50:58;;;;;;;;;;;12.50;99.90;;;;;;5113430;28;20195;-81
2022/05/08 03:53:26;;;;;;;18.87;12.97;;;12.50;99.90;;;;;;5113613;28;20168;-81
2022/05/08 03:55:53;;;;;;;17.90;12.87;;;12.60;99.90;;;;;;5113510;28;20207;-82
2022/05/08 03:58:20;;;;;;;17.40;12.83;;;12.60;99.90;;;;;;5112905;28;20193;-81
2022/05/08 04:00:47;;;;;;;17.13;12.60;;;12.60;99.90;;;;;;5112758;28;20255;-82
2022/05/08 04:03:14;;;;;;;18.90;13.70;;;12.60;99.90;;;;;;5113050;28;20222;-81
2022/05/08 04:05:41;;;;;;;22.20;13.37;;;12.60;99.90;;;;;;5113162;28;20296;-82
2022/05/08 04:08:08;;;;;;;18.37;12.90;;;12.60;99.90;;;;;;5113031;28;20196;-81
2022/05/08 04:10:37;;;;;;;18.03;12.57;;;12.60;99.90;;;;;;5112818;28;20528;-81
2022/05/08 04:13:04;;;;;;;17.63;11.33;;;12.60;99.90;;;;;;5113007;28;20277;-81
2022/05/08 04:18:15;;;;;;;16.07;11.47;;;12.60;99.90;;;;;;5112810;28;20199;-82
2022/05/08 04:20:42;;;;;;;14.07;10.67;;;12.60;99.90;;;;;;5112543;28;20249;-82
2022/05/08 04:25:55;;;;;;;16.93;11.10;;;12.60;99.90;;;;;;5112801;28;20544;-82
2022/05/08 04:28:22;;;;;;;16.33;11.00;;;12.70;99.90;;;;;;5113058;28;20228;-80
2022/05/08 04:30:50;;;;;;;17.27;11.53;;;12.70;99.90;;;;;;5112460;28;20736;-82
2022/05/08 04:33:17;;;;;;;15.00;11.10;;;12.80;99.90;;;;;;5112833;28;20197;-82
2022/05/08 04:35:44;;;;;;;17.93;11.80;;;12.90;99.90;;;;;;5112868;28;20202;-81
2022/05/08 04:38:12;;;;;;;17.37;11.67;;;13.00;99.90;;;;;;5112796;28;20192;-81
2022/05/08 04:40:41;;;;;;;14.87;11.63;;;13.10;99.90;;;;;;5112364;28;20227;-81
2022/05/08 04:43:09;;;;;;;14.97;11.90;;;13.20;99.90;;;;;;5112901;28;20183;-82
2022/05/08 04:45:36;;;;;;;14.40;11.30;;;13.30;99.90;;;;;;5112591;28;20278;-81
2022/05/08 04:48:04;;;;;;;14.80;12.00;;;13.50;99.90;;;;;;5112543;28;20190;-81
2022/05/08 04:50:31;;;;;;;15.10;10.70;;;13.80;99.90;;;;;;5112534;28;20282;-81
2022/05/08 04:52:58;;;;;;;13.27;9.87;;;14.40;99.90;;;;;;5112879;28;20237;-82
2022/05/08 04:55:25;;;;;;;11.10;8.20;;;15.70;99.90;;;;;;5112476;28;20201;-83
2022/05/08 04:57:51;;;;;;;9.85;7.88;;;17.30;1.00;;;;;;5112463;28;20226;-82
2022/05/08 05:00:20;;;;;;;9.18;7.72;;;18.10;80.20;;;;;;5112434;28;20194;-79
2022/05/08 05:02:47;;;;;;;8.98;7.38;;;18.20;1.00;;;;;;5112469;28;20223;-80
2022/05/08 05:05:14;;;;;;;8.73;7.47;;;18.10;99.90;;;;;;5112437;28;20287;-80
2022/05/08 05:07:41;;;;;;;8.38;7.07;;;18.00;1.00;;;;;;5112409;28;20240;-79
2022/05/08 05:10:10;;;;;;;9.48;7.10;;;18.90;1.00;;;;;;5112336;28;20219;-81
2022/05/08 05:12:38;;;;;;;8.63;6.85;;;20.20;1.00;;;;;;5112100;28;20186;-81
2022/05/08 05:15:06;;;;;;;8.10;6.68;;;21.40;99.90;;;;;;5113673;28;20238;-81
2022/05/08 05:17:34;;;;;;;9.48;6.88;;;22.60;1.00;;;;;;5116172;28;20553;-81
2022/05/08 05:20:02;;;;;;;7.55;5.97;;;23.70;99.90;;;;;;5116382;28;20645;-80
2022/05/08 05:22:29;;;;;;;9.32;5.88;;;24.60;99.90;;;;;;5116132;28;20254;-81
2022/05/08 05:24:57;;;;;;;8.05;6.30;;;25.50;1.00;;;;;;5116476;28;20230;-80
2022/05/08 05:27:24;;;;;;;9.07;5.75;;;26.10;1.00;;;;;;5115888;28;20223;-80
2022/05/08 05:29:54;;;;;;;7.75;5.70;;;26.50;1.00;;;;;;5117524;28;20191;-84
2022/05/08 05:32:21;;;;;;;7.25;5.97;;;26.80;1.00;;;;;;5138277;28;20219;-87
2022/05/08 05:34:50;;;;;;;7.32;5.40;;;27.20;1.00;;;;;;5116158;28;20191;-81
2022/05/08 05:37:17;;;;;;;7.28;5.60;;;27.80;1.00;;;;;;5124507;28;20109;-81
2022/05/08 05:39:44;;;;;;;7.60;5.47;;;28.60;1.00;;;;;;5130551;28;20210;-84
2022/05/08 05:42:14;;;;;;;6.13;5.53;;;29.30;1.00;;;;;;5131267;28;20215;-84
2022/05/08 05:44:41;;;;;;;6.70;5.45;;;29.90;1.00;;;;;;5128787;28;20195;-84
2022/05/08 05:49:54;;;;;;;6.63;5.43;;;30.70;1.00;;;;;;5116900;28;20606;-86
2022/05/08 05:52:22;;;;;;;5.63;5.03;;;31.10;1.00;;;;;;5115594;28;20207;-83
2022/05/08 05:54:48;;;;;;;5.95;5.20;;;31.60;1.00;;;;;;5121330;28;20187;-81
2022/05/08 05:57:15;;;;;;;6.00;5.28;;;32.10;1.00;;;;;;5115754;28;20219;-82
2022/05/08 05:59:42;;;;;;;5.88;5.28;;;32.30;1.00;;;;;;5115325;28;20266;-83
2022/05/08 06:02:09;;;;;;;6.65;5.50;;;32.70;1.00;;;;;;5119716;28;20236;-81
2022/05/08 06:04:36;;;;;;;5.85;4.93;;;33.20;1.00;;;;;;5117637;28;20226;-82
2022/05/08 06:07:04;;;;;;;6.10;5.13;;;33.70;1.00;;;;;;5123165;28;20191;-81
2022/05/08 06:09:34;;;;;;;5.72;4.57;;;34.40;1.00;;;;;;5119107;28;20247;-86
2022/05/08 06:12:01;;;;;;;8.63;6.20;;;34.80;1.00;;;;;;5116604;28;20209;-84
2022/05/08 06:14:28;;;;;;;6.43;5.50;;;35.10;1.00;;;;;;5118721;28;20190;-82
2022/05/08 06:16:55;;;;;;;7.53;6.00;;;35.50;1.00;;;;;;5115333;28;20252;-85
2022/05/08 06:19:22;;;;;;;6.53;5.50;;;35.70;1.00;;;;;;5114500;28;20190;-80
2022/05/08 06:21:49;;;;;;;7.32;6.63;;;35.90;1.00;;;;;;5119332;28;20237;-83
2022/05/08 06:24:18;;;;;;;11.32;8.45;;;36.20;1.00;;;;;;5118271;28;20198;-85
2022/05/08 06:26:45;;;;;;;33.63;27.45;;;36.50;1.00;;;;;;5114832;28;20642;-82
2022/05/08 06:29:12;;;;;;;18.75;14.40;;;36.80;1.00;;;;;;5116035;28;20186;-81
2022/05/08 06:31:39;;;;;;;19.25;13.93;;;36.80;1.00;;;;;;5117016;28;20631;-82
2022/05/08 06:34:06;;;;;;;33.33;24.83;;;36.80;1.00;;;;;;5114770;28;20186;-82
2022/05/08 06:36:33;;;;;;;9.85;8.27;;;37.00;1.00;;;;;;5116174;28;20202;-81
2022/05/08 06:39:00;;;;;;;39.22;29.15;;;37.00;1.00;;;;;;5119495;27;20200;-82
2022/05/08 06:41:29;;;;;;;66.50;43.65;;;37.10;1.00;;;;;;5121633;28;20654;-81
2022/05/08 06:43:56;;;;;;;55.95;39.13;;;37.20;1.00;;;;;;5123448;28;20251;-82
2022/05/08 06:46:23;;;;;;;21.80;16.27;;;37.10;1.00;;;;;;5122820;27;20226;-84
2022/05/08 06:48:50;;;;;;;17.92;15.07;;;37.00;1.00;;;;;;5124338;27;20730;-81
2022/05/08 06:51:17;;;;;;;18.55;14.55;;;36.90;1.00;;;;;;5122501;27;20279;-82
2022/05/08 06:53:44;;;;;;;18.52;13.90;;;37.00;1.00;;;;;;5122763;27;20643;-83
2022/05/08 06:56:13;;;;;;;21.58;16.95;;;36.90;1.00;;;;;;5119506;27;20541;-82
2022/05/08 07:01:36;;;;;;;38.25;30.40;;;35.40;1.00;;;;;;5123892;27;20740;-80
2022/05/08 07:04:03;;;;;;;18.20;15.20;;;34.80;1.00;;;;;;5122759;27;20573;-80
2022/05/08 07:06:30;;;;;;;13.70;10.90;;;35.00;1.00;;;;;;5122542;27;20239;-81
2022/05/08 07:08:59;;;;;;;26.40;18.70;;;35.30;1.00;;;;;;5124059;27;20186;-83
2022/05/08 07:11:26;;;;;;;38.13;28.10;;;35.50;1.00;;;;;;5123346;27;20296;-84
2022/05/08 07:13:54;;;;;;;9.15;7.00;;;35.80;1.00;;;;;;5126917;27;20222;-82
2022/05/08 07:16:22;;;;;;;39.05;29.77;;;35.90;1.00;;;;;;5121032;27;20182;-81
2022/05/08 07:18:49;;;;;;;9.40;7.45;;;36.20;1.00;;;;;;5125288;27;20190;-83
2022/05/08 07:21:18;;;;;;;8.65;7.07;;;36.40;1.00;;;;;;5123801;27;20181;-81
2022/05/08 07:23:49;;;;;;;6.78;4.60;;;36.60;1.00;;;;;;5127837;27;20190;-85
2022/05/08 07:26:16;;;;;;;9.35;7.00;;;36.40;1.00;;;;;;5111277;28;20178;-80
2022/05/08 07:28:44;;;;;;;10.93;8.90;;;36.60;1.00;;;;;;5113426;28;20214;-81
2022/05/08 07:31:12;;;;;;;9.43;4.72;;;36.80;1.00;;;;;;5113227;28;20710;-80
2022/05/08 07:33:40;;;;;;;5.38;3.50;;;36.80;1.00;;;;;;5117101;28;20198;-80
2022/05/08 07:36:13;;;;;;;6.82;4.57;;;36.90;1.00;;;;;;5113405;28;20191;-81
2022/05/08 07:38:42;;;;;;;9.43;6.47;;;37.10;1.00;;;;;;5113050;28;20191;-81
2022/05/08 07:41:10;;;;;;;7.18;4.50;;;37.20;1.00;;;;;;5113205;28;20214;-81
2022/05/08 07:43:37;;;;;;;12.43;9.57;;;37.30;1.00;;;;;;5107046;28;20194;-80
2022/05/08 07:46:08;;;;;;;15.10;10.77;;;37.60;1.00;;;;;;5127206;28;20245;-84
2022/05/08 07:48:37;;;;;;;7.93;5.70;;;37.70;1.00;;;;;;5117450;28;20254;-82
2022/05/08 07:51:05;;;;;;;12.50;7.68;;;37.30;1.00;;;;;;5116354;28;20202;-85
2022/05/08 07:53:37;;;;;;;11.52;6.88;;;37.30;1.00;;;;;;5116535;28;20186;-83
2022/05/08 07:56:51;;;;;;;7.13;4.00;;;37.30;1.00;;;;;;5122434;28;20179;-83
2022/05/08 07:59:18;;;;;;;5.38;3.00;;;36.90;1.00;;;;;;5081386;28;20214;-82
2022/05/08 08:01:46;;;;;;;4.15;2.40;;;36.50;1.00;;;;;;5113110;28;20236;-85
2022/05/08 08:04:17;;;;;;;5.63;2.60;;;36.50;1.00;;;;;;5114403;28;20239;-83
2022/05/08 08:06:44;;;;;;;6.35;3.33;;;36.50;1.00;;;;;;5116123;28;20194;-81
2022/05/08 08:09:11;;;;;;;5.05;2.60;;;36.40;1.00;;;;;;5117767;28;20190;-82
2022/05/08 08:11:43;;;;;;;4.43;3.15;;;36.50;1.00;;;;;;5105589;27;20248;-83
2022/05/08 08:14:10;;;;;;;6.55;4.75;;;36.50;1.00;;;;;;5107448;28;20737;-82
2022/05/08 08:16:39;;;;;;;5.50;3.85;;;36.50;1.00;;;;;;5112551;28;20295;-80
2022/05/08 08:19:06;;;;;;;4.05;2.70;;;36.60;1.00;;;;;;5112381;28;20187;-83
2022/05/08 08:21:34;;;;;;;4.50;2.92;;;36.40;1.00;;;;;;5116275;28;20662;-80
2022/05/08 08:24:01;;;;;;;5.35;3.28;;;36.20;1.00;;;;;;5115420;28;20190;-82
2022/05/08 08:26:28;;;;;;;8.75;5.13;;;36.10;1.00;;;;;;5112762;28;20182;-81
2022/05/08 08:28:55;;;;;;;8.15;5.35;;;36.20;1.00;;;;;;5111974;28;20685;-83
2022/05/08 08:31:22;;;;;;;4.57;3.03;;;36.40;1.00;;;;;;5112674;28;20644;-80
2022/05/08 08:33:49;;;;;;;5.28;2.90;;;36.50;1.00;;;;;;5111645;28;20218;-81
2022/05/08 08:36:16;;;;;;;5.05;3.03;;;36.20;1.00;;;;;;5100390;28;20205;-81
2022/05/08 08:38:44;;;;;;;5.20;2.95;;;35.90;1.00;;;;;;5108186;28;20277;-81
2022/05/08 08:41:15;;;;;;;3.55;2.88;;;35.90;1.00;;;;;;5115547;28;20654;-81
2022/05/08 08:49:21;;;;;;;5.75;3.03;;;35.90;1.00;;;;;;5112369;28;20639;-79
2022/05/08 08:51:49;;;;;;;16.85;10.35;;;35.90;1.00;;;;;;5119769;28;20249;-81
2022/05/08 08:54:23;;;;;;;6.93;3.97;;;35.70;1.00;;;;;;5112136;28;20189;-88
2022/05/08 08:56:50;;;;;;;8.73;5.50;;;35.50;1.00;;;;;;5104001;28;20206;-79
2022/05/08 08:59:17;;;;;;;5.00;3.17;;;34.90;1.00;;;;;;5116637;28;20190;-79
2022/05/08 09:01:45;;;;;;;7.85;4.25;;;34.80;1.00;;;;;;5117251;28;20277;-83
2022/05/08 09:04:15;;;;;;;9.35;3.28;;;34.70;1.00;;;;;;5100681;28;20193;-81
2022/05/08 09:06:43;;;;;;;6.40;3.08;;;34.60;1.00;;;;;;5101355;28;21451;-83
2022/05/08 09:09:25;;;;;;;5.35;2.65;;;34.70;1.00;;;;;;5112579;28;20658;-81
2022/05/08 09:11:53;;;;;;;5.45;2.55;;;34.70;1.00;;;;;;5118360;28;20639;-83
2022/05/08 09:14:30;;;;;;;6.75;2.50;;;34.70;1.00;;;;;;5100265;28;20270;-82
2022/05/08 09:16:58;;;;;;;6.28;2.70;;;34.60;1.00;;;;;;5117560;28;20197;-80
2022/05/08 09:19:34;;;;;;;5.55;2.78;;;34.10;1.00;;;;;;5116233;28;20198;-82
2022/05/08 09:22:03;;;;;;;5.85;3.20;;;33.90;1.00;;;;;;5116465;28;20184;-81
2022/05/08 09:24:31;;;;;;;5.60;3.22;;;33.60;1.00;;;;;;5117583;28;20179;-82
2022/05/08 09:27:19;;;;;;;5.38;3.20;;;33.10;1.00;;;;;;5116201;28;20195;-82
2022/05/08 09:29:47;;;;;;;8.07;2.97;;;32.80;1.00;;;;;;5109864;28;20278;-85
2022/05/08 09:32:34;;;;;;;;;;;32.50;1.00;;;;;;5116663;28;20048;-82
2022/05/08 09:35:02;;;;;;;5.90;2.85;;;32.20;1.00;;;;;;5122132;28;20205;-83
2022/05/08 09:37:29;;;;;;;7.72;3.40;;;31.70;1.00;;;;;;5116587;28;20179;-79
2022/05/08 09:40:19;;;;;;;5.65;2.88;;;31.10;1.00;;;;;;5118517;28;20270;-83
2022/05/08 09:42:46;;;;;;;;;;;30.60;1.00;;;;;;5100069;28;20484;-84
2022/05/08 09:45:16;;;;;;;6.60;3.25;;;30.20;1.00;;;;;;5099521;28;20190;-84
2022/05/08 09:47:47;;;;;;;6.88;2.78;;;29.80;1.00;;;;;;5105338;28;20659;-84
2022/05/08 09:50:15;;;;;;;;;;;29.20;1.00;;;;;;5118070;28;20042;-84
2022/05/08 09:52:42;;;;;;;;;;;28.70;1.00;;;;;;5118644;28;19954;-81
2022/05/08 09:55:12;;;;;;;12.15;4.97;;;28.40;1.00;;;;;;5114045;28;20214;-84
2022/05/08 09:57:40;;;;;;;;;;;28.20;1.00;;;;;;5108048;28;20488;-79
2022/05/08 10:00:09;;;;;;;9.57;4.60;;;27.90;1.00;;;;;;5118989;28;20241;-81
2022/05/08 10:02:36;;;;;;;9.27;4.28;;;27.60;1.00;;;;;;5115909;28;20215;-83
2022/05/08 10:05:04;;;;;;;9.63;4.68;;;27.30;1.00;;;;;;5114269;28;20195;-83
2022/05/08 10:07:33;;;;;;;8.32;3.83;;;26.90;1.00;;;;;;5114786;28;20195;-81
2022/05/08 10:15:35;;;;;;;;;;;26.50;1.00;;;;;;5115387;28;20206;-79
2022/05/08 10:18:23;;;;;;;6.25;3.47;;;26.50;1.00;;;;;;5114938;28;20218;-81
2022/05/08 10:21:04;;;;;;;7.43;3.20;;;26.40;1.00;;;;;;5115577;28;20582;-82
2022/05/08 10:23:35;;;;;;;6.50;3.00;;;26.00;1.00;;;;;;5120309;28;20249;-81
2022/05/08 10:26:19;;;;;;;9.90;3.70;;;25.70;1.00;;;;;;5114529;28;20197;-83
2022/05/08 10:29:13;;;;;;;10.82;4.40;;;25.50;1.00;;;;;;5115976;28;20207;-79
2022/05/08 10:31:42;;;;;;;7.50;4.20;;;25.40;1.00;;;;;;5114186;28;20274;-80
2022/05/08 10:34:09;;;;;;;7.40;4.78;;;25.30;1.00;;;;;;5115484;28;20219;-81
2022/05/08 10:36:37;;;;;;;8.05;3.58;;;25.40;1.00;;;;;;5100215;28;20274;-80
2022/05/08 10:39:37;;;;;;;7.28;3.75;;;25.60;1.00;;;;;;5092513;27;20235;-81
2022/05/08 10:42:04;;;;;;;7.97;3.97;;;25.60;1.00;;;;;;5111751;28;20643;-79
2022/05/08 10:44:42;;;;;;;7.88;4.50;;;25.60;1.00;;;;;;5114032;28;20198;-80
2022/05/08 10:47:42;;;;;;;8.90;4.60;;;25.40;1.00;;;;;;5113752;28;20183;-78
2022/05/08 10:50:12;;;;;;;8.27;4.57;;;25.10;1.00;;;;;;5113015;28;20364;-78
2022/05/08 10:52:41;;;;;;;12.07;4.60;;;24.80;1.00;;;;;;5113287;28;20698;-79
2022/05/08 10:55:12;;;;;;;7.28;4.00;;;24.60;1.00;;;;;;5109814;28;20183;-78
2022/05/08 10:57:40;;;;;;;9.80;4.80;;;24.50;1.00;;;;;;5113109;28;20266;-79
2022/05/08 11:00:11;;;;;;;6.50;4.03;;;24.50;1.00;;;;;;5113187;28;20251;-80
2022/05/08 11:02:42;;;;;;;7.50;3.92;;;24.40;1.00;;;;;;5113729;28;20237;-83
2022/05/08 11:05:10;;;;;;;11.55;5.80;;;24.50;1.00;;;;;;5113562;28;20234;-81
2022/05/08 11:07:38;;;;;;;8.85;4.35;;;24.40;1.00;;;;;;5112938;28;20258;-81
2022/05/08 11:10:15;;;;;;;8.73;4.45;;;24.30;1.00;;;;;;5112648;28;20278;-81
2022/05/08 11:12:59;;;;;;;11.23;4.65;;;24.40;1.00;;;;;;5112442;28;20206;-80
2022/05/08 11:15:28;;;;;;;10.10;5.00;;;24.30;1.00;;;;;;5112718;28;20652;-81
2022/05/08 11:18:10;;;;;;;8.75;5.40;;;24.00;1.00;;;;;;5112352;28;20281;-80
2022/05/08 11:20:39;;;;;;;8.93;5.47;;;24.00;1.00;;;;;;5109932;28;20266;-82
2022/05/08 11:23:06;;;;;;;8.38;5.65;;;24.00;1.00;;;;;;5112640;28;20643;-82
2022/05/08 11:25:34;;;;;;;9.63;5.63;;;24.00;1.00;;;;;;5113052;28;20909;-78
2022/05/08 11:28:01;;;;;;;12.85;6.00;;;24.10;1.00;;;;;;5113006;28;20272;-80
2022/05/08 11:30:35;;;;;;;9.52;5.82;;;24.10;1.00;;;;;;5112518;27;20275;-78
2022/05/08 11:36:06;;;;;;;9.23;5.45;;;23.80;1.00;;;;;;5112775;28;20193;-77
2022/05/08 11:38:44;;;;;;;8.98;4.72;;;23.70;1.00;;;;;;5113085;28;20179;-82
2022/05/08 11:41:12;;;;;;;7.20;3.95;;;23.70;1.00;;;;;;5112301;28;20233;-80
2022/05/08 11:43:44;;;;;;;8.98;4.85;;;23.60;1.00;;;;;;5112049;28;20638;-80
2022/05/08 11:46:16;;;;;;;10.73;5.57;;;23.60;1.00;;;;;;5112385;28;20187;-81
2022/05/08 11:48:46;;;;;;;9.20;5.68;;;23.60;1.00;;;;;;5112561;28;20262;-81
2022/05/08 11:51:14;;;;;;;10.85;5.75;;;23.60;1.00;;;;;;5111781;28;20271;-78
2022/05/08 11:53:42;;;;;;;11.63;6.03;;;23.60;1.00;;;;;;5111203;28;20227;-81
2022/05/08 11:56:30;;;;;;;8.15;4.78;;;23.50;1.00;;;;;;5111124;27;20218;-81
2022/05/08 11:58:58;;;;;;;7.82;5.13;;;23.50;1.00;;;;;;5112448;27;20183;-81
2022/05/08 12:01:29;;;;;;;9.50;5.47;;;23.30;1.00;;;;;;5112085;27;20247;-81
2022/05/08 12:03:57;;;;;;;7.85;5.30;;;23.20;1.00;;;;;;5108841;28;20203;-84
2022/05/08 12:06:25;;;;;;;11.88;5.47;;;23.20;1.00;;;;;;5103786;28;20218;-80
2022/05/08 12:08:52;;;;;;;11.57;5.70;;;23.20;1.00;;;;;;5096945;28;20644;-80
2022/05/08 12:11:34;;;;;;;9.82;5.00;;;23.20;1.00;;;;;;5091078;28;20223;-83
2022/05/08 12:14:06;;;;;;;7.50;4.80;;;23.00;1.00;;;;;;5091296;28;20576;-80
2022/05/08 12:16:35;;;;;;;7.40;4.57;;;23.00;1.00;;;;;;5092553;28;20552;-81
2022/05/08 12:19:19;;;;;;;8.65;4.60;;;23.00;1.00;;;;;;5092403;28;20195;-81
2022/05/08 12:21:47;;;;;;;8.25;4.78;;;22.80;1.00;;;;;;5093238;28;20184;-83
2022/05/08 12:24:17;;;;;;;7.53;4.90;;;22.80;1.00;;;;;;5091170;28;20195;-81
2022/05/08 12:26:45;;;;;;;10.23;5.28;;;22.60;1.00;;;;;;5099791;28;20226;-81
2022/05/08 12:29:20;;;;;;;9.18;4.72;;;22.60;1.00;;;;;;5092288;28;20274;-81
2022/05/08 12:31:50;;;;;;;9.23;5.05;;;22.70;1.00;;;;;;5092345;28;20233;-81
2022/05/08 12:34:17;;;;;;;9.75;4.40;;;22.80;1.00;;;;;;5105263;28;20215;-82
2022/05/08 12:36:44;;;;;;;9.35;4.00;;;22.80;1.00;;;;;;5105149;28;20314;-82
2022/05/08 12:39:12;;;;;;;6.95;3.90;;;22.80;1.00;;;;;;5091251;28;20202;-81
2022/05/08 12:41:39;;;;;;;6.55;3.92;;;22.80;1.00;;;;;;5091289;28;20643;-81
2022/05/08 12:44:06;;;;;;;9.82;4.00;;;22.90;1.00;;;;;;5099728;28;20210;-81
2022/05/08 12:46:33;;;;;;;10.48;5.18;;;22.90;1.00;;;;;;5098171;28;20290;-80
2022/05/08 12:49:03;;;;;;;9.10;4.90;;;22.80;1.00;;;;;;5090867;28;20187;-79
2022/05/08 12:51:33;;;;;;;9.57;4.60;;;22.70;1.00;;;;;;5090796;28;20253;-79
2022/05/08 12:54:02;;;;;;;9.80;4.50;;;22.60;1.00;;;;;;5090726;28;20229;-80
2022/05/08 12:56:29;;;;;;;9.48;4.90;;;22.60;1.00;;;;;;5101850;28;20199;-79
2022/05/08 13:01:41;;;;;;;8.90;4.13;;;22.70;1.00;;;;;;5091780;28;20179;-78
2022/05/08 13:04:09;;;;;;;6.00;3.42;;;22.60;1.00;;;;;;5092070;28;20707;-81
2022/05/08 13:06:37;;;;;;;11.52;3.85;;;22.60;1.00;;;;;;5091459;28;20231;-79
2022/05/08 13:09:06;;;;;;;10.50;3.80;;;22.50;1.00;;;;;;5091011;28;20200;-79
2022/05/08 13:11:34;;;;;;;8.07;4.53;;;22.50;1.00;;;;;;5094185;28;20274;-80
2022/05/08 13:14:01;;;;;;;10.73;4.22;;;22.50;1.00;;;;;;5095129;28;20218;-85
2022/05/08 13:16:40;;;;;;;9.10;3.75;;;22.50;1.00;;;;;;5094984;28;20188;-84
2022/05/08 13:19:09;;;;;;;8.27;4.05;;;22.50;1.00;;;;;;5095009;28;20203;-85
2022/05/08 13:21:37;;;;;;;8.32;4.13;;;22.50;1.00;;;;;;5094541;28;20598;-84
2022/05/08 13:24:07;;;;;;;8.15;4.10;;;22.40;1.00;;;;;;5095807;28;20198;-84
2022/05/08 13:26:34;;;;;;;8.50;3.20;;;22.30;1.00;;;;;;5094543;28;20265;-86
2022/05/08 13:29:12;;;;;;;8.05;3.92;;;22.30;1.00;;;;;;5095037;28;20202;-84